Time;durP1;ratioP1;P1;durP2;ratioP2;P2;SDS_P1;SDS_P2;PMS_P1;PMS_P2;Temp;Humidity;BMP_temperature;BMP_pressure;BME280_temperature;BME280_humidity;BME280_pressure;Samples;Min_cycle;Max_cycle;Signal;HPM_P1;HPM_P2
2022/01/06 00:01:54;;;;;;;9.80;4.10;;;;;;;2.55;85.31;98894.42;87336;1287;81128;-71
2022/01/06 00:03:59;;;;;;;9.70;4.30;;;;;;;2.51;85.39;98891.33;87345;1287;98649;-71
2022/01/06 00:06:08;;;;;;;8.00;4.70;;;;;;;2.48;85.51;98891.92;87372;1287;88261;-70
2022/01/06 00:08:17;;;;;;;8.70;4.30;;;;;;;2.46;85.53;98883.80;87292;1287;95834;-69
2022/01/06 00:10:26;;;;;;;9.50;4.40;;;;;;;2.37;85.56;98881.35;87352;1286;80173;-74
2022/01/06 00:12:39;;;;;;;11.20;5.00;;;;;;;2.33;85.79;98881.05;87339;1287;80625;-69
2022/01/06 00:14:58;;;;;;;7.40;4.60;;;;;;;2.35;85.77;98883.92;87342;1287;99816;-69
2022/01/06 00:17:21;;;;;;;8.00;4.70;;;;;;;2.35;85.88;98883.20;87242;1287;89202;-70
2022/01/06 00:24:35;;;;;;;9.50;4.50;;;;;;;2.28;86.46;98885.23;86808;1294;83462;-68
2022/01/06 00:26:41;;;;;;;9.10;5.30;;;;;;;2.29;86.45;98885.16;86812;1293;99780;-70
2022/01/06 00:28:47;;;;;;;7.90;5.10;;;;;;;2.33;86.55;98882.00;86844;1294;88564;-71
2022/01/06 00:30:54;;;;;;;10.20;6.00;;;;;;;2.32;86.55;98879.44;86805;1293;94103;-71
2022/01/06 00:33:02;;;;;;;7.10;5.30;;;;;;;2.30;86.42;98881.52;86766;1293;76959;-70
2022/01/06 00:35:09;;;;;;;10.50;5.40;;;;;;;2.18;86.51;98880.95;87325;1287;82898;-70
2022/01/06 00:37:15;;;;;;;10.30;5.60;;;;;;;2.18;86.40;98884.23;87314;1287;99257;-71
2022/01/06 00:39:26;;;;;;;11.00;5.20;;;;;;;2.15;86.63;98881.62;87346;1287;88019;-70
2022/01/06 00:41:36;;;;;;;9.80;5.60;;;;;;;2.15;86.65;98882.81;87348;1287;94460;-69
2022/01/06 00:43:42;;;;;;;11.50;5.10;;;;;;;2.17;86.52;98881.42;87358;1287;80733;-71
2022/01/06 00:45:57;;;;;;;10.40;5.70;;;;;;;2.22;86.63;98881.32;87353;1287;83444;-69
2022/01/06 00:48:06;;;;;;;10.30;5.50;;;;;;;2.24;86.65;98878.95;87313;1287;98590;-71
2022/01/06 00:50:12;;;;;;;9.20;5.50;;;;;;;2.26;86.82;98878.95;87310;1286;89155;-73
2022/01/06 00:52:19;;;;;;;10.10;5.60;;;;;;;2.29;86.83;98878.22;87364;1287;95312;-68
2022/01/06 00:54:25;;;;;;;11.70;7.00;;;;;;;2.30;86.76;98878.78;87331;1287;77495;-70
2022/01/06 00:56:31;;;;;;;10.90;5.80;;;;;;;2.33;86.74;98883.42;87352;1287;83300;-70
2022/01/06 00:58:39;;;;;;;14.10;6.80;;;;;;;2.30;86.61;98877.73;87311;1287;99409;-70
2022/01/06 01:00:45;;;;;;;10.80;5.70;;;;;;;2.31;86.67;98876.55;87318;1287;87137;-69
2022/01/06 01:02:51;;;;;;;11.80;6.10;;;;;;;2.32;86.56;98876.15;87320;1287;95377;-70
2022/01/06 01:04:57;;;;;;;12.00;5.90;;;;;;;2.32;86.53;98874.77;87361;1287;79974;-70
2022/01/06 01:07:04;;;;;;;11.50;5.50;;;;;;;2.36;86.73;98870.66;87342;1287;80933;-69
2022/01/06 01:09:12;;;;;;;12.90;6.10;;;;;;;2.41;86.64;98867.84;87336;1287;98360;-69
2022/01/06 01:11:22;;;;;;;12.40;5.90;;;;;;;2.43;86.66;98867.70;87332;1287;88924;-70
2022/01/06 01:13:32;;;;;;;9.30;5.10;;;;;;;2.47;86.76;98864.27;87317;1287;94271;-70
2022/01/06 01:15:46;;;;;;;11.00;5.50;;;;;;;2.57;86.65;98867.41;87334;1287;77019;-70
2022/01/06 01:17:53;;;;;;;11.30;5.90;;;;;;;2.60;86.58;98865.73;87326;1287;81825;-70
2022/01/06 01:20:00;;;;;;;12.20;6.10;;;;;;;2.63;86.70;98864.01;87379;1287;99285;-70
2022/01/06 01:22:08;;;;;;;10.10;5.50;;;;;;;2.65;86.80;98872.33;87342;1287;87265;-69
2022/01/06 01:24:18;;;;;;;9.70;6.10;;;;;;;2.63;86.74;98866.67;87347;1287;95009;-71
2022/01/06 01:26:25;;;;;;;11.10;6.20;;;;;;;2.64;86.69;98871.66;87289;1287;81780;-71
2022/01/06 01:28:42;;;;;;;10.50;5.20;;;;;;;2.61;86.58;98863.98;87343;1287;82251;-71
2022/01/06 01:31:01;;;;;;;9.10;5.10;;;;;;;2.61;86.48;98862.46;87079;1290;99635;-70
2022/01/06 01:33:15;;;;;;;8.70;5.10;;;;;;;2.64;86.53;98857.11;87363;1287;86366;-70
2022/01/06 01:35:21;;;;;;;8.60;4.90;;;;;;;2.66;86.55;98856.86;87355;1286;93421;-70
2022/01/06 01:37:32;;;;;;;8.40;4.90;;;;;;;2.71;86.65;98852.89;87314;1287;78076;-69
2022/01/06 01:39:40;;;;;;;9.60;5.10;;;;;;;2.76;86.68;98852.70;87366;1287;80551;-69
2022/01/06 01:41:47;;;;;;;10.00;5.10;;;;;;;2.81;86.52;98851.31;87332;1287;100051;-71
2022/01/06 01:43:54;;;;;;;9.10;5.40;;;;;;;2.85;86.63;98860.20;87338;1287;87842;-70
2022/01/06 01:46:09;;;;;;;9.50;5.30;;;;;;;2.84;86.79;98860.77;87338;1287;95224;-69
2022/01/06 01:48:23;;;;;;;10.10;5.10;;;;;;;2.84;86.62;98863.23;87173;1288;79118;-69
2022/01/06 01:50:33;;;;;;;7.40;5.00;;;;;;;2.80;86.75;98865.77;87346;1287;82481;-70
2022/01/06 01:52:40;;;;;;;8.00;4.60;;;;;;;2.77;86.80;98866.95;87340;1287;99114;-70
2022/01/06 01:54:46;;;;;;;6.20;4.20;;;;;;;2.76;86.65;98867.09;87342;1287;89387;-68
2022/01/06 01:56:55;;;;;;;6.70;4.00;;;;;;;2.74;87.10;98872.10;87179;1287;94970;-68
2022/01/06 01:59:02;;;;;;;7.20;4.20;;;;;;;2.76;87.04;98872.25;87330;1287;80948;-70
2022/01/06 02:01:09;;;;;;;6.80;4.10;;;;;;;2.78;87.18;98872.58;87317;1287;81244;-69
2022/01/06 02:03:19;;;;;;;6.80;4.10;;;;;;;2.80;87.19;98871.63;87087;1290;99054;-69
2022/01/06 02:05:30;;;;;;;8.50;4.60;;;;;;;2.84;87.11;98869.66;87228;1287;88184;-70
2022/01/06 02:07:41;;;;;;;7.90;3.90;;;;;;;2.87;87.35;98866.98;87303;1287;94131;-68
2022/01/06 02:09:48;;;;;;;6.60;4.40;;;;;;;2.87;87.19;98868.80;87342;1287;76704;-68
2022/01/06 02:11:54;;;;;;;7.10;4.20;;;;;;;2.89;87.30;98868.05;87377;1287;80708;-72
2022/01/06 02:14:04;;;;;;;9.10;4.90;;;;;;;2.88;87.26;98872.60;87354;1287;99019;-70
2022/01/06 02:16:11;;;;;;;7.70;4.70;;;;;;;2.87;87.30;98870.16;87291;1287;89938;-69
2022/01/06 02:18:18;;;;;;;9.80;5.00;;;;;;;2.86;87.30;98872.13;87333;1287;95188;-69
2022/01/06 02:20:26;;;;;;;10.80;4.80;;;;;;;2.85;87.34;98870.95;87311;1287;82188;-71
2022/01/06 02:22:32;;;;;;;6.90;4.60;;;;;;;2.85;87.48;98870.06;87350;1287;83083;-72
2022/01/06 02:24:38;;;;;;;8.00;4.60;;;;;;;2.87;87.58;98871.50;87316;1287;98829;-69
2022/01/06 02:26:47;;;;;;;8.80;4.20;;;;;;;2.91;87.59;98872.54;87313;1287;88219;-69
2022/01/06 02:28:57;;;;;;;7.30;4.00;;;;;;;2.96;87.49;98874.31;87319;1287;95777;-69
2022/01/06 02:31:06;;;;;;;6.80;4.10;;;;;;;2.98;87.72;98876.42;87299;1287;79117;-68
2022/01/06 02:33:15;;;;;;;7.40;4.20;;;;;;;3.02;87.65;98873.83;87315;1287;82047;-70
2022/01/06 02:35:26;;;;;;;5.90;4.10;;;;;;;3.07;87.75;98874.50;87315;1287;98284;-66
2022/01/06 02:37:34;;;;;;;6.90;4.00;;;;;;;3.11;87.70;98869.05;87094;1290;89577;-68
2022/01/06 02:39:46;;;;;;;8.80;4.90;;;;;;;3.08;87.75;98869.36;87212;1288;95600;-69
2022/01/06 02:41:52;;;;;;;9.00;5.30;;;;;;;3.07;87.63;98873.26;87083;1291;80991;-69
2022/01/06 02:44:03;;;;;;;7.20;4.40;;;;;;;3.02;87.64;98873.80;87342;1287;81294;-70
2022/01/06 02:46:12;;;;;;;7.10;4.00;;;;;;;2.99;87.68;98873.21;87050;1290;99856;-68
2022/01/06 02:48:20;;;;;;;6.10;4.00;;;;;;;3.01;87.78;98872.21;87324;1287;87484;-69
2022/01/06 02:50:27;;;;;;;7.50;4.50;;;;;;;3.05;87.84;98868.84;87343;1287;93511;-69
2022/01/06 02:52:33;;;;;;;8.60;3.90;;;;;;;3.12;87.82;98863.17;87337;1287;78726;-69
2022/01/06 02:54:39;;;;;;;5.80;4.20;;;;;;;3.17;87.60;98859.96;87334;1287;81906;-67
2022/01/06 02:56:45;;;;;;;5.50;3.90;;;;;;;3.20;87.67;98860.30;87320;1287;97220;-69
2022/01/06 02:58:52;;;;;;;6.80;4.10;;;;;;;3.22;87.63;98861.82;87313;1287;88505;-69
2022/01/06 03:00:58;;;;;;;6.60;4.20;;;;;;;3.24;87.57;98864.81;87327;1287;94273;-71
2022/01/06 03:03:07;;;;;;;7.80;4.10;;;;;;;3.22;87.81;98861.32;87336;1287;78240;-69
2022/01/06 03:05:14;;;;;;;7.00;4.20;;;;;;;3.20;87.75;98861.61;87341;1287;81698;-69
2022/01/06 03:07:20;;;;;;;7.70;4.30;;;;;;;3.18;87.64;98862.69;87319;1287;99582;-69
2022/01/06 03:09:36;;;;;;;7.90;4.60;;;;;;;3.17;87.77;98864.39;87327;1287;88263;-70
2022/01/06 03:11:44;;;;;;;6.50;4.30;;;;;;;3.17;87.69;98867.00;87303;1287;92953;-72
2022/01/06 03:13:52;;;;;;;6.30;3.80;;;;;;;3.19;87.77;98870.35;87311;1287;79085;-69
2022/01/06 03:15:59;;;;;;;6.80;4.00;;;;;;;3.23;87.87;98873.78;87352;1287;80781;-68
2022/01/06 03:18:05;;;;;;;6.30;4.00;;;;;;;3.28;87.79;98873.63;87329;1287;98475;-69
2022/01/06 03:20:15;;;;;;;8.50;4.00;;;;;;;3.34;87.75;98872.40;87365;1286;88463;-70
2022/01/06 03:22:20;;;;;;;7.50;4.00;;;;;;;3.37;87.78;98876.63;87335;1287;95684;-69
2022/01/06 03:24:28;;;;;;;8.20;4.30;;;;;;;3.35;87.88;98876.62;87185;1287;78722;-71
2022/01/06 03:26:34;;;;;;;6.90;4.20;;;;;;;3.35;87.84;98881.48;87319;1286;82781;-70
2022/01/06 03:28:39;;;;;;;5.50;3.80;;;;;;;3.33;87.72;98885.24;87351;1286;100235;-70
2022/01/06 03:30:48;;;;;;;6.50;4.30;;;;;;;3.29;87.79;98882.67;87317;1287;89980;-70
2022/01/06 03:32:54;;;;;;;7.50;4.10;;;;;;;3.28;87.80;98885.69;87331;1287;93973;-70
2022/01/06 03:35:03;;;;;;;6.20;4.00;;;;;;;3.26;87.74;98888.95;87281;1287;81735;-68
2022/01/06 03:37:08;;;;;;;8.70;4.00;;;;;;;3.26;87.97;98889.15;87154;1287;83915;-68
2022/01/06 03:39:14;;;;;;;5.30;3.80;;;;;;;3.24;87.82;98889.86;87319;1287;99896;-69
2022/01/06 03:41:23;;;;;;;7.00;3.90;;;;;;;3.25;87.88;98893.82;87352;1287;87859;-68
2022/01/06 03:43:29;;;;;;;5.20;3.70;;;;;;;3.27;87.98;98898.30;87350;1287;94201;-68
2022/01/06 03:45:35;;;;;;;7.10;4.10;;;;;;;3.30;87.93;98905.55;87326;1286;78621;-68
2022/01/06 03:47:41;;;;;;;6.70;4.40;;;;;;;3.27;88.04;98908.18;87354;1287;81059;-68
2022/01/06 03:49:51;;;;;;;5.80;4.30;;;;;;;3.30;88.03;98910.72;87317;1287;99859;-69
2022/01/06 03:51:57;;;;;;;6.70;4.50;;;;;;;3.29;88.13;98909.73;87322;1287;87585;-69
2022/01/06 03:54:06;;;;;;;6.60;4.00;;;;;;;3.31;87.99;98911.27;87335;1287;94235;-70
2022/01/06 03:56:15;;;;;;;5.80;4.20;;;;;;;3.32;87.94;98912.09;87361;1287;79128;-69
2022/01/06 03:58:21;;;;;;;8.80;4.90;;;;;;;3.32;87.88;98913.91;87315;1287;80368;-68
2022/01/06 04:00:27;;;;;;;6.20;4.50;;;;;;;3.32;87.86;98916.80;87335;1287;98967;-67
2022/01/06 04:02:34;;;;;;;6.00;4.20;;;;;;;3.29;88.04;98920.10;86469;1287;1225619;-68
2022/01/06 04:04:40;;;;;;;7.80;4.10;;;;;;;3.31;88.03;98919.61;87285;1287;94987;-68
2022/01/06 04:06:46;;;;;;;6.50;3.70;;;;;;;3.34;88.06;98919.30;87285;1287;82793;-68
2022/01/06 04:08:52;;;;;;;5.20;3.80;;;;;;;3.38;88.05;98919.85;87334;1286;81512;-68
2022/01/06 04:10:58;;;;;;;7.20;4.30;;;;;;;3.38;88.21;98924.81;87200;1288;99257;-68
2022/01/06 04:13:03;;;;;;;6.80;4.40;;;;;;;3.38;88.12;98926.99;87323;1287;88114;-68
2022/01/06 04:15:13;;;;;;;7.50;4.50;;;;;;;3.37;88.16;98928.52;87286;1287;95875;-70
2022/01/06 04:17:21;;;;;;;5.50;4.30;;;;;;;3.35;88.25;98931.06;87323;1287;79535;-69
2022/01/06 04:19:30;;;;;;;6.00;4.40;;;;;;;3.35;88.24;98932.73;87328;1287;80577;-70
2022/01/06 04:21:36;;;;;;;6.40;4.90;;;;;;;3.32;88.02;98932.90;87285;1287;99164;-68
2022/01/06 04:23:42;;;;;;;7.30;4.30;;;;;;;3.32;87.99;98931.59;87311;1286;89422;-68
2022/01/06 04:25:47;;;;;;;5.80;4.20;;;;;;;3.28;88.27;98929.95;87325;1287;94744;-70
2022/01/06 04:27:56;;;;;;;5.70;4.60;;;;;;;3.27;88.17;98931.90;87295;1287;79449;-68
2022/01/06 04:30:03;;;;;;;6.90;3.70;;;;;;;3.27;88.37;98935.39;87334;1287;82886;-68
2022/01/06 04:32:09;;;;;;;6.20;3.70;;;;;;;3.26;88.32;98933.60;87313;1287;98818;-68
2022/01/06 04:34:15;;;;;;;4.90;3.90;;;;;;;3.26;88.34;98936.40;87336;1287;87896;-68
2022/01/06 04:36:21;;;;;;;6.30;3.80;;;;;;;3.31;88.24;98939.70;87300;1287;95361;-69
2022/01/06 04:38:27;;;;;;;5.90;3.80;;;;;;;3.37;88.30;98940.81;87317;1287;78047;-68
2022/01/06 04:40:33;;;;;;;5.70;4.20;;;;;;;3.41;88.22;98943.60;87316;1287;82030;-68
2022/01/06 04:42:38;;;;;;;7.20;3.90;;;;;;;3.39;88.32;98942.70;87336;1287;100119;-70
2022/01/06 04:44:45;;;;;;;6.80;5.10;;;;;;;3.34;88.24;98939.38;87364;1287;89456;-69
2022/01/06 04:46:51;;;;;;;5.10;4.10;;;;;;;3.33;88.37;98946.69;87334;1287;94077;-71
2022/01/06 04:48:57;;;;;;;6.00;3.80;;;;;;;3.30;88.24;98942.77;87221;1288;79162;-70
2022/01/06 04:51:07;;;;;;;5.50;3.90;;;;;;;3.26;88.43;98952.05;87295;1287;82886;-70
2022/01/06 04:53:13;;;;;;;5.30;3.90;;;;;;;3.24;88.17;98955.50;87313;1287;99491;-70
2022/01/06 04:55:19;;;;;;;6.40;3.90;;;;;;;3.22;88.29;98964.36;87334;1287;87515;-69
2022/01/06 04:57:25;;;;;;;4.70;3.60;;;;;;;3.24;88.34;98967.44;87294;1286;94202;-69
2022/01/06 04:59:34;;;;;;;3.80;3.20;;;;;;;3.27;88.43;98967.48;87286;1287;79903;-68
2022/01/06 05:01:43;;;;;;;5.60;3.90;;;;;;;3.33;88.40;98967.64;87319;1287;80685;-70
2022/01/06 05:03:49;;;;;;;5.60;3.40;;;;;;;3.37;88.35;98964.67;87328;1287;100183;-71
2022/01/06 05:05:55;;;;;;;4.10;3.50;;;;;;;3.42;88.39;98966.61;87375;1287;88710;-69
2022/01/06 05:08:01;;;;;;;5.80;3.60;;;;;;;3.48;88.19;98973.00;87319;1287;95207;-69
2022/01/06 05:10:10;;;;;;;7.40;4.00;;;;;;;3.49;88.37;98973.35;87090;1289;77667;-69
2022/01/06 05:12:16;;;;;;;4.50;3.80;;;;;;;3.47;88.28;98982.30;87226;1288;80538;-69
2022/01/06 05:14:22;;;;;;;6.00;4.00;;;;;;;3.47;88.25;98978.77;87344;1287;99421;-70
2022/01/06 05:16:27;;;;;;;5.60;4.20;;;;;;;3.45;88.19;98980.09;87342;1287;89733;-69
2022/01/06 05:18:34;;;;;;;7.30;4.00;;;;;;;3.43;87.97;98977.96;87285;1287;95102;-69
2022/01/06 05:20:42;;;;;;;5.00;4.00;;;;;;;3.37;88.14;98983.65;87330;1287;78874;-72
2022/01/06 05:22:48;;;;;;;4.90;3.80;;;;;;;3.36;88.20;98986.30;87297;1287;83226;-71
2022/01/06 05:24:54;;;;;;;4.00;3.20;;;;;;;3.34;88.09;98979.21;87307;1287;97739;-69
2022/01/06 05:27:00;;;;;;;4.10;3.50;;;;;;;3.35;88.22;98981.02;87313;1287;86388;-69
2022/01/06 05:29:06;;;;;;;5.80;3.40;;;;;;;3.36;88.21;98983.34;87318;1287;95380;-69
2022/01/06 05:31:14;;;;;;;3.70;3.10;;;;;;;3.40;88.14;98985.54;87305;1287;81226;-71
2022/01/06 05:33:21;;;;;;;4.50;3.80;;;;;;;3.42;88.20;98988.23;87343;1287;82602;-70
2022/01/06 05:35:26;;;;;;;4.80;3.80;;;;;;;3.46;88.04;98988.46;87299;1287;98663;-70
2022/01/06 05:37:32;;;;;;;6.10;4.30;;;;;;;3.46;88.21;98991.16;87310;1287;87911;-71
2022/01/06 05:39:38;;;;;;;6.70;4.00;;;;;;;3.44;88.25;98985.20;87338;1287;93232;-68
2022/01/06 05:41:45;;;;;;;4.50;4.10;;;;;;;3.45;88.10;98983.67;87265;1288;77356;-69
2022/01/06 05:43:51;;;;;;;5.60;4.00;;;;;;;3.44;88.19;98983.23;87319;1287;83144;-69
2022/01/06 05:45:58;;;;;;;5.90;3.90;;;;;;;3.41;87.95;98980.18;87290;1287;100570;-71
2022/01/06 05:48:05;;;;;;;4.40;3.50;;;;;;;3.37;88.08;98977.11;87303;1286;87572;-71
2022/01/06 05:50:12;;;;;;;4.90;3.40;;;;;;;3.32;88.16;98981.59;87329;1287;95755;-68
2022/01/06 05:52:18;;;;;;;3.20;2.90;;;;;;;3.26;88.08;98984.80;87315;1287;79440;-68
2022/01/06 05:54:24;;;;;;;3.90;3.00;;;;;;;3.24;88.14;98984.12;87303;1287;84013;-69
2022/01/06 05:56:33;;;;;;;4.20;2.70;;;;;;;3.26;88.28;98984.98;87317;1287;98980;-68
2022/01/06 05:58:40;;;;;;;4.60;3.00;;;;;;;3.21;88.42;98987.86;87236;1287;89622;-69
2022/01/06 06:00:50;;;;;;;4.90;3.30;;;;;;;3.13;88.54;98991.73;87311;1287;93318;-72
2022/01/06 06:02:56;;;;;;;4.40;3.00;;;;;;;3.06;88.56;99000.34;87117;1288;77485;-71
2022/01/06 06:05:02;;;;;;;4.40;3.20;;;;;;;3.08;88.49;99004.66;87352;1287;80661;-70
2022/01/06 06:07:08;;;;;;;4.70;3.20;;;;;;;3.02;88.22;99007.16;87348;1287;99308;-71
2022/01/06 06:09:14;;;;;;;4.30;2.80;;;;;;;2.93;88.43;99018.34;87323;1287;88897;-71
2022/01/06 06:11:20;;;;;;;5.40;3.30;;;;;;;2.85;88.58;99024.25;87340;1287;94933;-71
2022/01/06 06:13:26;;;;;;;5.20;3.20;;;;;;;2.88;88.34;99026.20;87280;1287;82413;-71
2022/01/06 06:15:35;;;;;;;4.90;3.10;;;;;;;2.92;88.37;99033.85;87311;1287;80952;-68
2022/01/06 06:17:41;;;;;;;4.80;2.50;;;;;;;2.93;88.38;99038.05;87287;1286;99498;-69
2022/01/06 06:19:47;;;;;;;3.70;2.30;;;;;;;2.95;88.60;99038.58;87277;1287;89057;-70
2022/01/06 06:21:57;;;;;;;3.40;2.40;;;;;;;3.03;88.51;99041.70;87314;1286;94233;-71
2022/01/06 06:24:03;;;;;;;4.90;2.60;;;;;;;3.10;88.37;99045.11;87075;1290;77454;-71
2022/01/06 06:26:08;;;;;;;4.10;2.70;;;;;;;3.15;88.59;99050.21;87332;1287;82501;-69
2022/01/06 06:28:17;;;;;;;4.10;2.50;;;;;;;3.18;88.43;99054.63;87282;1287;98959;-69
2022/01/06 06:30:23;;;;;;;4.90;3.00;;;;;;;3.21;88.34;99062.29;87301;1287;88589;-70
2022/01/06 06:32:33;;;;;;;3.90;3.30;;;;;;;3.23;88.11;99062.94;87289;1287;96295;-70
2022/01/06 06:34:42;;;;;;;4.50;3.30;;;;;;;3.22;88.15;99069.45;87306;1287;78820;-69
2022/01/06 06:36:49;;;;;;;5.10;3.10;;;;;;;3.22;88.15;99072.25;87306;1287;81840;-69
2022/01/06 06:38:58;;;;;;;3.30;2.70;;;;;;;3.21;88.15;99078.51;87347;1287;100013;-68
2022/01/06 06:41:08;;;;;;;3.90;2.90;;;;;;;3.15;88.14;99078.76;87315;1286;88226;-69
2022/01/06 06:43:17;;;;;;;3.20;2.70;;;;;;;3.17;88.17;99083.02;87338;1287;95954;-67
2022/01/06 06:45:26;;;;;;;4.40;2.90;;;;;;;3.20;87.96;99087.84;87310;1287;79436;-68
2022/01/06 06:47:33;;;;;;;4.90;2.90;;;;;;;3.23;88.02;99092.42;87305;1287;81924;-68
2022/01/06 06:49:38;;;;;;;5.30;3.10;;;;;;;3.25;88.01;99093.68;87285;1287;99678;-70
2022/01/06 06:51:48;;;;;;;5.00;3.10;;;;;;;3.25;87.91;99093.45;87298;1287;89048;-70
2022/01/06 06:53:57;;;;;;;5.10;3.10;;;;;;;3.26;87.87;99095.98;87299;1287;95441;-70
2022/01/06 06:56:07;;;;;;;4.10;3.10;;;;;;;3.26;87.92;99102.95;87300;1287;76979;-68
2022/01/06 06:58:15;;;;;;;4.40;3.30;;;;;;;3.24;87.75;99108.33;87324;1287;82639;-68
2022/01/06 07:00:22;;;;;;;6.20;3.30;;;;;;;3.21;87.73;99109.96;87186;1287;99922;-68
2022/01/06 07:02:28;;;;;;;4.50;2.80;;;;;;;3.18;87.66;99116.54;87303;1287;88756;-68
2022/01/06 07:04:34;;;;;;;4.40;3.40;;;;;;;3.13;87.81;99117.77;87312;1287;93871;-69
2022/01/06 07:06:40;;;;;;;6.00;2.80;;;;;;;3.14;87.87;99119.81;87309;1286;79584;-70
2022/01/06 07:08:46;;;;;;;4.20;2.70;;;;;;;3.08;87.82;99116.64;87294;1287;81164;-69
2022/01/06 07:10:55;;;;;;;5.00;3.30;;;;;;;3.10;87.87;99118.30;87299;1286;99903;-68
2022/01/06 07:13:00;;;;;;;4.20;3.10;;;;;;;3.13;87.86;99123.98;87297;1287;88833;-68
2022/01/06 07:15:14;;;;;;;4.30;3.20;;;;;;;3.18;87.65;99122.89;87302;1287;94477;-67
2022/01/06 07:17:20;;;;;;;4.70;3.40;;;;;;;3.14;87.66;99130.65;87329;1287;79307;-68
2022/01/06 07:19:27;;;;;;;4.90;3.50;;;;;;;3.10;87.38;99136.81;87313;1287;82350;-68
2022/01/06 07:21:33;;;;;;;5.70;3.50;;;;;;;3.06;87.20;99140.10;87307;1287;97551;-71
2022/01/06 07:23:39;;;;;;;5.30;3.60;;;;;;;3.00;87.20;99144.02;87325;1287;88782;-70
2022/01/06 07:25:48;;;;;;;5.50;3.30;;;;;;;2.97;87.19;99147.63;87319;1287;94064;-69
2022/01/06 07:27:57;;;;;;;5.30;3.00;;;;;;;2.96;87.22;99151.83;87270;1287;79164;-70
2022/01/06 07:30:08;;;;;;;5.60;3.40;;;;;;;2.97;87.18;99148.55;87326;1287;83984;-70
2022/01/06 07:32:17;;;;;;;4.70;2.90;;;;;;;2.98;87.12;99158.42;87299;1287;99001;-70
2022/01/06 07:34:26;;;;;;;3.70;2.80;;;;;;;2.99;87.03;99160.80;87304;1286;87956;-70
2022/01/06 07:36:35;;;;;;;3.90;2.80;;;;;;;2.96;86.88;99170.73;87273;1287;96120;-69
2022/01/06 07:38:42;;;;;;;4.50;2.80;;;;;;;2.95;87.00;99173.81;87307;1287;79361;-69
2022/01/06 07:40:48;;;;;;;4.60;3.10;;;;;;;2.94;87.02;99174.19;87330;1287;80906;-70
2022/01/06 07:42:56;;;;;;;4.50;3.00;;;;;;;2.90;86.99;99179.45;87295;1287;99744;-69
2022/01/06 07:45:03;;;;;;;6.80;3.20;;;;;;;2.85;86.64;99179.46;87286;1287;89401;-70
2022/01/06 07:47:12;;;;;;;3.80;3.20;;;;;;;2.85;86.71;99185.30;87301;1287;92293;-70
2022/01/06 07:49:18;;;;;;;5.10;2.90;;;;;;;2.87;86.68;99194.45;87306;1287;80036;-70
2022/01/06 07:51:25;;;;;;;4.60;3.30;;;;;;;2.87;86.66;99195.27;87319;1287;81610;-68
2022/01/06 07:53:32;;;;;;;4.70;2.90;;;;;;;2.86;86.47;99198.89;87282;1286;99539;-68
2022/01/06 07:55:39;;;;;;;4.00;2.40;;;;;;;2.86;86.55;99198.77;87306;1287;88242;-67
2022/01/06 07:57:51;;;;;;;4.40;2.70;;;;;;;2.86;86.41;99196.89;87285;1287;95499;-68
2022/01/06 08:00:00;;;;;;;3.30;2.40;;;;;;;2.85;86.48;99200.73;87317;1287;79952;-68
2022/01/06 08:02:09;;;;;;;4.10;2.40;;;;;;;2.85;86.38;99203.27;87309;1286;81429;-68
2022/01/06 08:04:18;;;;;;;3.80;2.30;;;;;;;2.90;86.50;99208.92;87319;1287;98449;-69
2022/01/06 08:06:24;;;;;;;3.40;2.10;;;;;;;2.91;86.45;99205.19;87207;1288;89107;-71
2022/01/06 08:08:33;;;;;;;4.50;2.40;;;;;;;2.95;86.42;99210.52;87280;1287;93601;-70
2022/01/06 08:10:39;;;;;;;4.30;2.70;;;;;;;2.96;86.45;99213.25;87237;1288;77357;-68
2022/01/06 08:12:45;;;;;;;2.90;2.10;;;;;;;2.95;86.43;99210.68;87273;1287;82066;-68
2022/01/06 08:14:51;;;;;;;4.10;2.10;;;;;;;2.93;86.18;99210.69;87289;1287;98279;-70
2022/01/06 08:16:57;;;;;;;4.20;1.90;;;;;;;2.90;86.19;99213.89;87280;1287;88021;-70
2022/01/06 08:19:03;;;;;;;2.90;1.90;;;;;;;2.88;86.00;99216.02;87102;1290;95296;-69
2022/01/06 08:21:09;;;;;;;3.00;1.90;;;;;;;2.90;86.10;99218.00;87293;1287;79542;-70
2022/01/06 08:23:15;;;;;;;4.40;2.20;;;;;;;2.88;86.02;99226.70;87320;1287;83021;-70
2022/01/06 08:25:21;;;;;;;4.00;1.70;;;;;;;2.84;86.19;99229.64;87337;1287;98762;-70
2022/01/06 08:27:27;;;;;;;3.00;1.80;;;;;;;2.89;86.13;99225.02;87306;1287;87265;-71
2022/01/06 08:29:36;;;;;;;3.00;1.90;;;;;;;2.94;86.00;99228.32;87275;1287;94785;-69
2022/01/06 08:31:44;;;;;;;4.20;2.50;;;;;;;2.96;85.92;99229.79;87350;1287;78378;-69
2022/01/06 08:33:50;;;;;;;2.90;2.20;;;;;;;2.99;85.96;99231.77;87290;1287;82386;-69
2022/01/06 08:35:56;;;;;;;4.40;3.00;;;;;;;3.01;85.87;99233.75;87296;1287;98081;-69
2022/01/06 08:38:01;;;;;;;6.70;3.30;;;;;;;2.99;85.69;99235.30;87300;1287;88459;-70
2022/01/06 08:40:11;;;;;;;3.50;2.50;;;;;;;2.99;85.45;99241.22;87297;1287;96372;-70
2022/01/06 08:42:16;;;;;;;4.20;3.00;;;;;;;2.97;85.40;99245.16;87334;1287;77905;-69
2022/01/06 08:44:22;;;;;;;3.60;2.80;;;;;;;2.98;85.37;99253.19;87316;1287;81101;-70
2022/01/06 08:46:28;;;;;;;4.90;3.10;;;;;;;2.96;85.15;99264.29;87312;1287;100258;-70
2022/01/06 08:48:35;;;;;;;4.40;2.30;;;;;;;2.91;85.23;99264.06;87294;1287;87623;-70
2022/01/06 08:50:40;;;;;;;4.90;2.30;;;;;;;2.97;85.34;99265.95;87305;1287;92608;-71
2022/01/06 08:52:51;;;;;;;4.70;2.50;;;;;;;3.07;85.32;99268.42;87245;1287;79230;-66
2022/01/06 08:54:57;;;;;;;4.40;2.30;;;;;;;3.14;85.23;99267.27;87309;1287;82339;-68
2022/01/06 08:57:03;;;;;;;4.00;2.60;;;;;;;3.20;85.12;99275.50;87288;1287;100214;-66
2022/01/06 08:59:12;;;;;;;5.50;3.20;;;;;;;3.25;85.22;99275.45;87313;1287;88357;-67
2022/01/06 09:01:18;;;;;;;4.90;3.20;;;;;;;3.28;85.08;99277.45;87289;1287;93892;-67
2022/01/06 09:03:24;;;;;;;5.00;2.90;;;;;;;3.24;85.03;99275.20;87284;1287;76614;-68
2022/01/06 09:05:33;;;;;;;4.30;3.00;;;;;;;3.22;84.89;99278.70;87292;1287;83508;-68
2022/01/06 09:07:42;;;;;;;4.50;3.10;;;;;;;3.19;84.91;99286.40;87321;1287;98001;-66
2022/01/06 09:09:51;;;;;;;5.30;3.40;;;;;;;3.19;84.88;99284.04;87273;1287;89428;-66
2022/01/06 09:11:58;;;;;;;5.00;3.10;;;;;;;3.16;84.44;99284.17;87278;1287;93808;-66
2022/01/06 09:14:04;;;;;;;4.30;2.40;;;;;;;3.06;84.37;99287.05;87273;1287;81239;-66
2022/01/06 09:16:11;;;;;;;3.00;2.60;;;;;;;3.10;84.31;99288.42;87304;1287;83296;-66
2022/01/06 09:18:17;;;;;;;4.30;2.80;;;;;;;3.06;84.37;99287.52;87082;1290;99941;-66
2022/01/06 09:20:24;;;;;;;4.30;2.50;;;;;;;3.09;84.44;99292.19;87257;1287;89545;-68
2022/01/06 09:22:33;;;;;;;5.90;3.30;;;;;;;3.10;84.43;99294.02;87284;1287;94519;-66
2022/01/06 09:24:39;;;;;;;5.20;3.50;;;;;;;3.13;84.40;99297.41;87320;1287;79637;-67
2022/01/06 09:26:45;;;;;;;5.70;3.80;;;;;;;3.16;84.42;99296.75;87324;1287;81807;-68
2022/01/06 09:28:51;;;;;;;7.50;3.90;;;;;;;3.16;84.27;99299.98;87302;1287;100346;-65
2022/01/06 09:30:59;;;;;;;6.50;3.90;;;;;;;3.15;84.38;99304.59;87308;1287;87419;-69
2022/01/06 09:33:06;;;;;;;7.70;4.00;;;;;;;3.12;84.20;99309.49;87290;1287;92844;-65
2022/01/06 09:35:17;;;;;;;5.50;3.80;;;;;;;3.12;84.35;99317.66;87334;1287;79015;-66
2022/01/06 09:37:23;;;;;;;6.30;3.40;;;;;;;3.10;84.23;99313.26;87281;1287;80576;-68
2022/01/06 09:39:34;;;;;;;5.10;3.50;;;;;;;3.08;84.27;99320.37;87256;1287;97971;-66
2022/01/06 09:41:41;;;;;;;5.00;2.80;;;;;;;3.09;84.41;99321.17;87266;1287;88650;-66
2022/01/06 09:43:49;;;;;;;4.40;2.40;;;;;;;3.09;84.36;99326.73;87293;1287;95568;-66
2022/01/06 09:45:56;;;;;;;6.50;3.30;;;;;;;3.11;84.29;99325.96;87275;1287;81306;-66
2022/01/06 09:48:08;;;;;;;6.00;3.70;;;;;;;3.12;84.34;99331.02;87286;1287;82699;-66
2022/01/06 09:50:17;;;;;;;6.30;3.60;;;;;;;3.17;84.25;99329.73;87289;1287;99098;-66
2022/01/06 09:52:26;;;;;;;6.90;3.60;;;;;;;3.22;84.33;99329.17;87305;1287;87987;-66
2022/01/06 09:54:33;;;;;;;6.20;3.40;;;;;;;3.27;84.29;99323.98;87272;1287;95507;-66
2022/01/06 09:56:42;;;;;;;5.30;3.20;;;;;;;3.31;84.27;99328.35;87254;1287;78870;-66
2022/01/06 09:58:51;;;;;;;4.90;3.50;;;;;;;3.29;84.04;99330.19;87287;1287;80184;-68
2022/01/06 10:00:58;;;;;;;5.40;3.60;;;;;;;3.25;83.97;99331.45;87313;1287;99679;-68
2022/01/06 10:03:08;;;;;;;5.30;3.60;;;;;;;3.23;84.15;99339.20;87083;1289;87689;-62
2022/01/06 10:05:14;;;;;;;5.90;3.50;;;;;;;3.21;84.03;99339.59;87268;1287;95402;-64
2022/01/06 10:07:21;;;;;;;5.20;3.60;;;;;;;3.17;84.04;99338.84;87241;1287;79219;-63
2022/01/06 10:09:28;;;;;;;5.90;3.60;;;;;;;3.05;83.95;99338.05;87266;1287;82319;-66
2022/01/06 10:11:38;;;;;;;4.90;3.10;;;;;;;3.02;84.03;99337.27;87278;1287;100128;-63
2022/01/06 10:13:53;;;;;;;4.70;3.00;;;;;;;2.99;84.01;99338.23;87059;1290;86505;-64